Time;durP1;ratioP1;P1;durP2;ratioP2;P2;SDS_P1;SDS_P2;PMS_P1;PMS_P2;Temp;Humidity;BMP_temperature;BMP_pressure;BME280_temperature;BME280_humidity;BME280_pressure;Samples;Min_cycle;Max_cycle;Signal;HPM_P1;HPM_P2
2023/10/09 00:03:06;;;;;;;11.90;5.63;;;14.90;99.90;;;;;;5075368;28;20041;-67
2023/10/09 00:06:05;;;;;;;14.20;5.73;;;14.90;99.90;;;;;;5074764;28;20067;-67
2023/10/09 00:08:30;;;;;;;16.10;5.87;;;14.90;99.90;;;;;;5074312;28;20078;-67
2023/10/09 00:11:13;;;;;;;13.67;7.20;;;14.90;99.90;;;;;;5076249;28;20377;-67
2023/10/09 00:13:48;;;;;;;12.57;6.67;;;14.90;99.90;;;;;;5075400;28;20076;-67
2023/10/09 00:16:16;;;;;;;15.53;7.17;;;14.90;99.90;;;;;;5075393;28;20106;-67
2023/10/09 00:18:46;;;;;;;16.20;6.50;;;14.90;99.90;;;;;;5074458;28;20473;-67
2023/10/09 00:21:23;;;;;;;14.53;7.63;;;14.90;99.90;;;;;;5075789;28;20481;-67
2023/10/09 00:23:55;;;;;;;13.47;7.60;;;14.90;99.90;;;;;;5074030;28;20131;-67
2023/10/09 00:26:21;;;;;;;17.27;8.37;;;14.90;99.90;;;;;;5075978;28;20048;-67
2023/10/09 00:28:47;;;;;;;18.00;8.43;;;14.90;99.90;;;;;;5073740;28;20489;-67
2023/10/09 00:31:26;;;;;;;16.47;8.60;;;14.90;99.90;;;;;;5075063;28;20049;-67
2023/10/09 00:33:55;;;;;;;17.10;8.37;;;14.90;99.90;;;;;;5075704;28;20080;-67
2023/10/09 00:36:27;;;;;;;21.80;10.00;;;14.90;99.90;;;;;;5074943;28;20098;-67
2023/10/09 00:38:53;;;;;;;17.63;9.03;;;14.90;99.90;;;;;;5074323;28;20500;-67
2023/10/09 00:41:24;;;;;;;22.60;9.83;;;14.90;99.90;;;;;;5074926;28;20085;-67
2023/10/09 00:43:51;;;;;;;22.57;10.93;;;14.90;99.90;;;;;;5074894;28;20090;-67
2023/10/09 00:48:49;;;;;;;16.23;10.07;;;14.90;99.90;;;;;;5075537;28;20052;-67
2023/10/09 00:51:19;;;;;;;25.30;11.93;;;14.90;99.90;;;;;;5073893;28;20131;-68
2023/10/09 00:53:51;;;;;;;18.93;12.13;;;14.90;99.90;;;;;;5075399;28;20052;-67
2023/10/09 00:56:28;;;;;;;21.57;12.27;;;14.90;99.90;;;;;;5074932;28;20066;-67
2023/10/09 00:59:00;;;;;;;19.53;11.97;;;14.90;99.90;;;;;;5074578;28;20082;-67
2023/10/09 01:01:34;;;;;;;25.03;12.00;;;14.90;99.90;;;;;;5073191;28;20056;-67
2023/10/09 01:04:17;;;;;;;25.33;12.57;;;14.80;99.90;;;;;;5075158;28;20045;-67
2023/10/09 01:07:05;;;;;;;25.23;13.33;;;14.80;99.90;;;;;;5074931;28;20056;-67
2023/10/09 01:09:37;;;;;;;20.97;13.03;;;14.80;99.90;;;;;;5074075;28;20485;-67
2023/10/09 01:12:03;;;;;;;25.07;13.63;;;14.80;99.90;;;;;;5074804;28;20048;-67
2023/10/09 01:14:41;;;;;;;26.37;13.60;;;14.80;99.90;;;;;;5074749;28;20056;-67
2023/10/09 01:17:09;;;;;;;26.07;15.50;;;14.80;99.90;;;;;;5073560;28;20049;-67
2023/10/09 01:19:35;;;;;;;27.33;15.57;;;14.80;99.90;;;;;;5073067;28;20044;-67
2023/10/09 01:22:12;;;;;;;27.63;17.03;;;14.80;99.90;;;;;;5073638;28;20060;-67
2023/10/09 01:24:41;;;;;;;28.87;16.20;;;14.80;99.90;;;;;;5074712;28;20059;-67
2023/10/09 01:27:16;;;;;;;30.80;16.63;;;14.80;99.90;;;;;;5074063;28;20055;-68
2023/10/09 01:29:43;;;;;;;26.40;16.40;;;14.80;99.90;;;;;;5074055;28;20481;-67
2023/10/09 01:32:16;;;;;;;27.33;17.30;;;14.80;99.90;;;;;;5073990;28;20044;-67
2023/10/09 01:34:44;;;;;;;30.90;17.27;;;14.80;99.90;;;;;;5073975;28;20052;-68
2023/10/09 01:37:18;;;;;;;33.87;18.20;;;14.80;99.90;;;;;;5073900;28;20052;-67
2023/10/09 01:42:45;;;;;;;34.60;18.70;;;14.80;99.90;;;;;;5073741;28;20052;-67
2023/10/09 01:45:12;;;;;;;36.20;20.73;;;14.80;99.90;;;;;;5074615;28;20044;-67
2023/10/09 01:47:38;;;;;;;28.43;18.67;;;14.70;99.90;;;;;;5073769;28;20049;-67
2023/10/09 01:50:14;;;;;;;34.90;21.20;;;14.80;99.90;;;;;;5073687;28;20084;-67
2023/10/09 01:52:42;;;;;;;37.97;21.37;;;14.80;99.90;;;;;;5073766;28;20037;-68
2023/10/09 01:55:12;;;;;;;34.17;21.47;;;14.80;99.90;;;;;;5073652;28;20049;-68
2023/10/09 01:57:39;;;;;;;36.37;21.83;;;14.80;99.90;;;;;;5073582;28;20112;-68
2023/10/09 02:00:07;;;;;;;39.70;23.33;;;14.70;99.90;;;;;;5073612;28;20052;-67
2023/10/09 02:02:36;;;;;;;36.53;22.80;;;14.80;99.90;;;;;;5074310;28;20068;-67
2023/10/09 02:05:24;;;;;;;38.43;22.93;;;14.80;99.90;;;;;;5073235;28;20048;-68
2023/10/09 02:07:51;;;;;;;39.23;24.37;;;14.80;99.90;;;;;;5074204;28;20106;-67
2023/10/09 02:12:57;;;;;;;37.83;23.27;;;14.80;99.90;;;;;;5073550;28;20080;-67
2023/10/09 02:21:00;;;;;;;52.33;26.30;;;14.80;99.90;;;;;;5073449;28;20060;-68
2023/10/09 02:23:38;;;;;;;44.23;26.90;;;14.80;99.90;;;;;;5073332;28;20127;-68
2023/10/09 02:26:06;;;;;;;45.17;26.17;;;14.80;99.90;;;;;;5073694;28;20084;-68
2023/10/09 02:28:35;;;;;;;46.63;26.90;;;14.80;99.90;;;;;;5076869;28;20122;-68
2023/10/09 02:31:10;;;;;;;43.93;26.13;;;14.80;99.90;;;;;;5078253;28;20465;-68
2023/10/09 02:33:38;;;;;;;52.63;28.53;;;14.70;99.90;;;;;;5078591;28;20127;-68
2023/10/09 02:36:06;;;;;;;44.07;27.57;;;14.70;99.90;;;;;;5077028;28;20505;-67
2023/10/09 02:38:40;;;;;;;47.97;30.67;;;14.80;99.90;;;;;;5077226;28;20040;-68
2023/10/09 02:43:44;;;;;;;37.73;24.43;;;14.80;99.90;;;;;;5077094;28;20080;-67
2023/10/09 02:46:17;;;;;;;51.30;30.10;;;14.70;99.90;;;;;;5077979;28;20125;-67
2023/10/09 02:48:48;;;;;;;43.37;26.73;;;14.70;99.90;;;;;;5077397;28;20124;-67
2023/10/09 02:51:32;;;;;;;50.80;28.77;;;14.80;99.90;;;;;;5077183;28;20049;-67
2023/10/09 02:54:17;;;;;;;49.38;30.63;;;14.80;99.90;;;;;;5077617;28;20052;-67
2023/10/09 02:56:47;;;;;;;56.28;31.90;;;14.80;99.90;;;;;;5076540;28;20052;-67
2023/10/09 02:59:13;;;;;;;48.10;28.97;;;14.80;99.90;;;;;;5075689;28;20040;-67
2023/10/09 03:01:40;;;;;;;46.90;30.17;;;14.80;99.90;;;;;;5076808;28;20052;-67
2023/10/09 03:04:06;;;;;;;54.10;33.47;;;14.80;99.90;;;;;;5075706;28;20057;-67
2023/10/09 03:06:34;;;;;;;53.30;34.77;;;14.80;99.90;;;;;;5076686;28;20123;-67
2023/10/09 03:09:16;;;;;;;54.40;33.33;;;14.90;99.90;;;;;;5076367;28;20105;-67
2023/10/09 03:11:48;;;;;;;45.57;29.37;;;14.90;99.90;;;;;;5076339;28;20566;-67
2023/10/09 03:14:15;;;;;;;54.27;32.47;;;14.90;99.90;;;;;;5076697;28;20044;-67
2023/10/09 03:16:42;;;;;;;56.77;35.33;;;14.90;99.90;;;;;;5075836;28;20194;-68
2023/10/09 03:19:11;;;;;;;53.17;31.93;;;14.90;99.90;;;;;;5076751;28;20110;-68
2023/10/09 03:21:37;;;;;;;55.23;34.83;;;15.00;99.90;;;;;;5075692;28;20059;-67
2023/10/09 03:24:04;;;;;;;49.70;31.10;;;15.00;99.90;;;;;;5076574;28;20044;-67
2023/10/09 03:26:31;;;;;;;57.73;35.80;;;15.00;99.90;;;;;;5076097;28;20132;-68
2023/10/09 03:29:00;;;;;;;49.10;32.23;;;15.00;99.90;;;;;;5075703;28;20067;-67
2023/10/09 03:31:30;;;;;;;52.03;33.83;;;15.00;99.90;;;;;;5075152;28;20070;-68
2023/10/09 03:33:56;;;;;;;51.57;30.20;;;15.10;99.90;;;;;;5076216;28;20127;-67
2023/10/09 03:36:26;;;;;;;45.67;29.87;;;15.10;99.90;;;;;;5076074;28;20084;-67
2023/10/09 03:38:55;;;;;;;48.00;30.80;;;15.10;99.90;;;;;;5075930;28;20051;-67
2023/10/09 03:41:21;;;;;;;54.07;30.87;;;15.20;99.90;;;;;;5076076;28;20049;-67
2023/10/09 03:43:47;;;;;;;47.20;31.53;;;15.20;99.90;;;;;;5075037;28;20498;-67
2023/10/09 03:46:32;;;;;;;43.40;29.10;;;15.20;99.90;;;;;;5075943;28;20072;-67
2023/10/09 03:49:00;;;;;;;41.10;27.27;;;15.20;99.90;;;;;;5074938;28;20488;-67
2023/10/09 03:51:27;;;;;;;41.07;25.13;;;15.30;99.90;;;;;;5075820;28;20083;-67
2023/10/09 03:53:53;;;;;;;39.73;25.30;;;15.30;99.90;;;;;;5076574;28;20040;-67
2023/10/09 03:56:21;;;;;;;38.00;24.53;;;15.30;99.90;;;;;;5075743;28;20071;-67
2023/10/09 03:58:49;;;;;;;30.27;21.63;;;15.40;99.90;;;;;;5076272;28;20055;-67
2023/10/09 04:01:27;;;;;;;30.97;22.40;;;15.40;99.90;;;;;;5075732;28;20080;-67
2023/10/09 04:03:55;;;;;;;34.87;23.57;;;15.50;99.90;;;;;;5075353;28;20036;-68
2023/10/09 04:06:28;;;;;;;29.23;19.93;;;15.50;99.90;;;;;;5075665;28;20052;-67
2023/10/09 04:08:55;;;;;;;31.27;21.00;;;15.50;99.90;;;;;;5076141;28;20044;-68
2023/10/09 04:11:24;;;;;;;30.73;20.67;;;15.50;99.90;;;;;;5075808;28;20045;-67
2023/10/09 04:13:52;;;;;;;30.77;19.70;;;15.50;99.90;;;;;;5075782;28;20044;-67
2023/10/09 04:18:57;;;;;;;31.07;17.93;;;15.60;99.90;;;;;;5076261;28;20105;-67
2023/10/09 04:21:35;;;;;;;28.27;17.13;;;15.60;99.90;;;;;;5075329;28;20043;-67
2023/10/09 04:26:44;;;;;;;25.13;14.83;;;15.70;99.90;;;;;;5075472;28;20127;-67
2023/10/09 04:29:26;;;;;;;23.03;14.93;;;15.70;99.90;;;;;;5076050;28;20063;-67
2023/10/09 04:31:56;;;;;;;28.27;14.43;;;15.70;99.90;;;;;;5075150;28;20044;-67
2023/10/09 04:34:28;;;;;;;24.60;13.77;;;15.70;99.90;;;;;;5073893;28;20048;-67
2023/10/09 04:37:00;;;;;;;24.60;13.70;;;15.70;99.90;;;;;;5075100;28;20040;-67
2023/10/09 04:47:38;;;;;;;25.40;14.90;;;15.70;99.90;;;;;;5075765;28;20052;-67
2023/10/09 04:50:36;;;;;;;23.13;12.20;;;15.70;99.90;;;;;;5074825;28;20040;-67
2023/10/09 04:55:53;;;;;;;21.40;11.90;;;15.70;99.90;;;;;;5074736;28;20052;-67
2023/10/09 04:58:24;;;;;;;20.27;10.77;;;15.70;99.90;;;;;;5074949;28;20455;-67
2023/10/09 05:03:30;;;;;;;24.30;11.50;;;15.70;99.90;;;;;;5075295;28;20132;-65
2023/10/09 05:05:59;;;;;;;28.83;12.20;;;15.80;99.90;;;;;;5073259;28;20106;-66
2023/10/09 05:16:26;;;;;;;23.07;11.43;;;15.80;99.90;;;;;;5074340;28;20059;-66
2023/10/09 05:18:59;;;;;;;19.77;11.50;;;15.80;99.90;;;;;;5074214;28;20513;-66
2023/10/09 05:34:33;;;;;;;22.70;11.27;;;15.90;99.90;;;;;;5073018;28;20547;-66
2023/10/09 05:37:22;;;;;;;21.97;11.03;;;15.90;99.90;;;;;;5073921;28;20048;-66
2023/10/09 05:47:53;;;;;;;24.77;11.37;;;15.90;99.90;;;;;;5074630;28;20071;-66
2023/10/09 06:03:48;;;;;;;28.13;11.83;;;15.90;99.90;;;;;;5051410;28;20106;-66
2023/10/09 06:06:32;;;;;;;26.93;11.40;;;15.90;99.90;;;;;;5072508;28;20489;-66
2023/10/09 06:11:48;;;;;;;28.60;11.13;;;15.90;99.90;;;;;;5074453;28;20044;-66
2023/10/09 06:14:45;;;;;;;28.93;10.73;;;15.90;99.90;;;;;;5073652;28;20045;-66
2023/10/09 06:19:43;;;;;;;27.23;12.77;;;15.90;99.90;;;;;;5072069;28;20067;-66
2023/10/09 06:22:56;;;;;;;26.50;10.53;;;16.00;99.90;;;;;;5073445;28;20044;-66
2023/10/09 06:25:12;;;;;;;;;;;15.90;99.90;;;;;;5074428;28;20063;-66
2023/10/09 06:35:31;;;;;;;27.67;9.90;;;16.00;99.90;;;;;;5073320;28;20647;-66
2023/10/09 06:46:43;;;;;;;23.53;10.43;;;16.00;99.90;;;;;;5073669;28;20500;-67
2023/10/09 06:48:55;;;;;;;26.15;10.90;;;16.00;99.90;;;;;;5073015;28;20106;-66
2023/10/09 06:59:03;;;;;;;19.73;10.03;;;16.00;99.90;;;;;;5073153;28;20048;-67
2023/10/09 07:06:51;;;;;;;26.37;10.53;;;16.10;99.90;;;;;;5073591;28;20447;-66
2023/10/09 07:09:20;;;;;;;23.80;10.37;;;16.10;99.90;;;;;;5073036;28;20396;-66
2023/10/09 07:24:49;;;;;;;23.93;11.13;;;16.10;99.90;;;;;;5076508;28;20497;-66
2023/10/09 07:27:51;;;;;;;22.17;10.17;;;16.10;99.90;;;;;;5076258;28;20048;-66
2023/10/09 07:33:16;;;;;;;24.93;9.83;;;16.20;99.90;;;;;;5077104;28;20060;-66
2023/10/09 07:35:54;;;;;;;;;;;16.20;99.90;;;;;;5077351;28;20427;-66
2023/10/09 07:38:35;;;;;;;25.30;9.90;;;16.20;99.90;;;;;;5076308;28;19963;-66
2023/10/09 07:43:39;;;;;;;25.73;9.97;;;16.20;99.90;;;;;;5076010;28;20045;-66
2023/10/09 07:48:52;;;;;;;25.90;10.10;;;16.20;99.90;;;;;;5076284;28;20083;-66
2023/10/09 07:51:23;;;;;;;24.77;10.33;;;16.20;99.90;;;;;;5076041;28;20044;-66
2023/10/09 07:54:06;;;;;;;30.50;10.63;;;16.30;99.90;;;;;;5076813;28;20098;-66
2023/10/09 07:56:38;;;;;;;32.17;11.57;;;16.30;99.90;;;;;;5076743;28;20052;-66
2023/10/09 07:59:10;;;;;;;19.73;9.23;;;16.30;99.90;;;;;;5075957;28;20060;-66
2023/10/09 08:01:52;;;;;;;25.20;10.83;;;16.30;99.90;;;;;;5076418;28;20101;-66
2023/10/09 08:04:47;;;;;;;26.53;11.40;;;16.30;99.90;;;;;;5074721;28;20123;-66
2023/10/09 08:07:25;;;;;;;24.37;10.97;;;16.30;99.90;;;;;;5075652;28;20045;-66
2023/10/09 08:12:57;;;;;;;22.83;11.13;;;16.30;99.90;;;;;;5075537;28;20469;-66
2023/10/09 08:15:34;;;;;;;28.37;10.60;;;16.30;99.90;;;;;;5075481;28;20496;-66
2023/10/09 08:18:09;;;;;;;22.53;10.40;;;16.30;99.90;;;;;;5075540;28;20070;-66
2023/10/09 08:21:19;;;;;;;21.67;10.93;;;16.30;99.90;;;;;;5076129;28;20492;-66
2023/10/09 08:23:48;;;;;;;24.33;10.83;;;16.30;99.90;;;;;;5074549;28;20564;-66
2023/10/09 08:26:28;;;;;;;27.43;10.93;;;16.30;99.90;;;;;;5074958;28;20052;-66
2023/10/09 08:29:15;;;;;;;26.63;10.40;;;16.30;99.90;;;;;;5075812;28;20469;-66
2023/10/09 08:31:46;;;;;;;25.47;10.20;;;16.30;99.90;;;;;;5074803;28;20087;-66
2023/10/09 08:34:24;;;;;;;27.17;11.80;;;16.30;99.90;;;;;;5074906;28;20485;-66
2023/10/09 08:36:53;;;;;;;28.30;9.47;;;16.30;99.90;;;;;;5075188;28;20059;-66
2023/10/09 08:39:25;;;;;;;26.30;9.77;;;16.30;99.90;;;;;;5075644;28;20048;-66
2023/10/09 08:41:52;;;;;;;25.77;9.47;;;16.30;99.90;;;;;;5074133;28;20045;-66
2023/10/09 08:44:23;;;;;;;26.30;10.07;;;16.30;99.90;;;;;;5074895;28;20033;-66
2023/10/09 08:46:50;;;;;;;26.03;11.07;;;16.30;99.90;;;;;;5074670;28;20523;-66
2023/10/09 08:49:16;;;;;;;32.37;10.10;;;16.30;99.90;;;;;;5074535;28;20540;-66
2023/10/09 08:51:42;;;;;;;22.17;9.43;;;16.40;99.90;;;;;;5073646;28;20142;-66
2023/10/09 08:54:11;;;;;;;26.20;10.33;;;16.40;99.90;;;;;;5075581;28;20045;-66
2023/10/09 08:56:39;;;;;;;19.13;8.93;;;16.40;99.90;;;;;;5074746;28;20071;-66
2023/10/09 08:59:05;;;;;;;27.53;9.67;;;16.50;99.90;;;;;;5073609;28;20059;-67
2023/10/09 09:01:34;;;;;;;20.57;8.93;;;16.50;99.90;;;;;;5074692;28;20123;-66
2023/10/09 09:04:02;;;;;;;30.10;11.07;;;16.50;99.90;;;;;;5074491;28;20127;-66
2023/10/09 09:06:38;;;;;;;22.63;8.50;;;16.50;99.90;;;;;;5074550;28;20052;-66
2023/10/09 09:09:15;;;;;;;24.93;9.67;;;16.50;99.90;;;;;;5075371;28;20052;-66
2023/10/09 09:11:48;;;;;;;29.30;10.47;;;16.60;99.90;;;;;;5074452;28;20044;-66
2023/10/09 09:14:19;;;;;;;26.20;9.23;;;16.60;99.90;;;;;;5074193;28;20036;-66
2023/10/09 09:16:48;;;;;;;21.20;8.53;;;16.60;99.90;;;;;;5074590;28;20122;-66
2023/10/09 09:19:20;;;;;;;28.27;10.30;;;16.60;99.90;;;;;;5074190;28;20044;-66
2023/10/09 09:21:59;;;;;;;26.57;10.23;;;16.70;99.90;;;;;;5074344;28;20052;-66
2023/10/09 09:26:58;;;;;;;23.97;9.40;;;16.80;99.90;;;;;;5073712;28;20433;-66
2023/10/09 09:29:36;;;;;;;22.00;9.20;;;16.80;99.90;;;;;;5074698;28;20123;-66
2023/10/09 09:32:20;;;;;;;29.70;9.80;;;16.90;99.90;;;;;;5073484;28;20301;-66
2023/10/09 09:34:54;;;;;;;22.70;9.17;;;16.90;99.90;;;;;;5074647;28;20131;-66
2023/10/09 09:40:28;;;;;;;26.97;9.70;;;16.90;99.90;;;;;;5073488;28;20060;-66
2023/10/09 09:43:06;;;;;;;23.52;8.60;;;16.90;99.90;;;;;;5073864;28;20049;-66
2023/10/09 09:45:35;;;;;;;26.33;9.47;;;17.00;99.90;;;;;;5073827;28;20051;-66
2023/10/09 09:48:15;;;;;;;25.03;9.80;;;17.00;99.90;;;;;;5073827;28;20044;-66
2023/10/09 09:50:44;;;;;;;26.17;10.10;;;17.00;99.90;;;;;;5074396;28;20055;-66
2023/10/09 09:53:17;;;;;;;21.40;9.47;;;17.00;99.90;;;;;;5073798;28;20127;-66
2023/10/09 09:55:57;;;;;;;20.47;9.83;;;17.10;99.90;;;;;;5073790;28;20044;-66
2023/10/09 09:58:24;;;;;;;25.10;8.80;;;17.00;99.90;;;;;;5073997;28;20123;-66
2023/10/09 10:00:53;;;;;;;20.33;9.30;;;17.10;99.90;;;;;;5073617;28;20127;-66
2023/10/09 10:03:25;;;;;;;19.23;8.40;;;17.10;99.90;;;;;;5073599;28;20059;-66
2023/10/09 10:05:52;;;;;;;20.87;9.30;;;17.10;99.90;;;;;;5074227;28;20047;-66
2023/10/09 10:08:21;;;;;;;22.87;9.07;;;17.10;99.90;;;;;;5073566;28;20044;-66
2023/10/09 10:10:58;;;;;;;21.13;8.43;;;17.10;99.90;;;;;;5073581;28;20048;-66
2023/10/09 10:13:42;;;;;;;22.47;7.83;;;17.10;99.90;;;;;;5073599;28;20037;-66
2023/10/09 10:18:59;;;;;;;25.23;9.63;;;17.10;99.90;;;;;;5073832;28;20052;-66
2023/10/09 10:21:49;;;;;;;25.83;9.43;;;17.10;99.90;;;;;;5074011;28;20060;-66
2023/10/09 10:24:30;;;;;;;24.30;9.13;;;17.10;99.90;;;;;;5073442;28;20080;-67
2023/10/09 10:28:00;;;;;;;26.87;9.90;;;17.10;99.90;;;;;;5072433;28;20060;-65
2023/10/09 10:30:33;;;;;;;19.20;8.80;;;17.10;99.90;;;;;;5069890;28;20055;-66
2023/10/09 10:33:09;;;;;;;30.20;9.13;;;17.10;99.90;;;;;;5073379;28;20123;-66
2023/10/09 10:38:42;;;;;;;22.38;9.77;;;17.10;99.90;;;;;;5073675;28;20052;-66
2023/10/09 10:41:17;;;;;;;29.10;9.33;;;17.10;99.90;;;;;;5073300;28;20048;-66
2023/10/09 10:49:21;;;;;;;27.00;9.53;;;17.10;99.90;;;;;;5075747;28;20098;-66
2023/10/09 10:51:58;;;;;;;24.13;9.30;;;17.10;99.90;;;;;;5077170;28;20052;-66
2023/10/09 10:57:05;;;;;;;21.57;8.70;;;17.20;99.90;;;;;;5077074;28;20056;-66
2023/10/09 10:59:36;;;;;;;23.63;8.57;;;17.30;99.90;;;;;;5076930;28;20040;-66
2023/10/09 11:04:39;;;;;;;19.90;7.73;;;17.40;99.90;;;;;;5077106;28;20048;-66
2023/10/09 11:07:24;;;;;;;21.50;7.90;;;17.50;99.90;;;;;;5076906;28;20401;-66
2023/10/09 11:12:45;;;;;;;20.57;6.57;;;17.50;99.90;;;;;;5076762;28;20166;-66
2023/10/09 11:18:07;;;;;;;15.80;6.57;;;17.50;99.90;;;;;;5076724;28;20052;-66
2023/10/09 11:20:38;;;;;;;16.40;7.13;;;17.50;99.90;;;;;;5075483;28;20485;-66
2023/10/09 11:23:14;;;;;;;17.07;6.17;;;17.40;99.90;;;;;;5076468;28;20049;-66
2023/10/09 11:25:52;;;;;;;15.93;5.90;;;17.40;99.90;;;;;;5076571;28;20045;-66
2023/10/09 11:31:17;;;;;;;16.77;6.23;;;17.40;99.90;;;;;;5071632;28;20056;-66
2023/10/09 11:33:53;;;;;;;16.60;6.00;;;17.30;99.90;;;;;;5076295;28;20044;-66
2023/10/09 11:36:32;;;;;;;14.70;5.73;;;17.30;99.90;;;;;;5076310;28;20127;-66
2023/10/09 11:39:17;;;;;;;13.67;5.07;;;17.30;99.90;;;;;;5077128;28;20439;-66
2023/10/09 11:41:44;;;;;;;13.23;5.43;;;17.30;99.90;;;;;;5076478;28;20412;-66
2023/10/09 11:44:18;;;;;;;19.87;5.63;;;17.30;99.90;;;;;;5076036;28;20091;-66
2023/10/09 11:52:37;;;;;;;14.10;4.60;;;17.30;99.90;;;;;;5076005;28;20109;-66
2023/10/09 11:55:07;;;;;;;15.63;5.07;;;17.40;99.90;;;;;;5076010;28;20128;-66
2023/10/09 11:57:33;;;;;;;15.13;4.77;;;17.40;99.90;;;;;;5076416;28;20377;-66
2023/10/09 12:03:04;;;;;;;13.33;4.80;;;17.50;99.90;;;;;;5052118;28;20484;-66
2023/10/09 12:05:33;;;;;;;15.63;5.17;;;17.60;99.90;;;;;;5075697;28;20093;-66
2023/10/09 12:08:01;;;;;;;13.33;4.70;;;17.60;99.90;;;;;;5075711;28;20079;-66
2023/10/09 12:10:27;;;;;;;14.63;4.77;;;17.60;99.90;;;;;;5075649;28;20041;-66
2023/10/09 12:12:58;;;;;;;14.73;5.90;;;17.80;99.90;;;;;;5075599;28;20051;-66
2023/10/09 12:15:25;;;;;;;11.97;4.50;;;17.90;99.90;;;;;;5075541;28;20048;-66
2023/10/09 12:17:53;;;;;;;18.23;5.03;;;18.00;99.90;;;;;;5075476;28;20546;-66
2023/10/09 12:20:32;;;;;;;17.27;5.27;;;18.10;99.90;;;;;;5075205;28;20433;-66
2023/10/09 12:23:05;;;;;;;11.27;4.20;;;18.10;99.90;;;;;;5076160;28;20049;-66
2023/10/09 12:25:35;;;;;;;14.97;4.30;;;18.10;99.90;;;;;;5076159;28;20110;-66
2023/10/09 12:28:02;;;;;;;12.03;3.80;;;18.10;99.90;;;;;;5075737;28;20056;-66
2023/10/09 12:30:37;;;;;;;13.27;4.10;;;18.20;99.90;;;;;;5075718;28;20389;-66
2023/10/09 12:33:03;;;;;;;9.70;3.53;;;18.20;99.90;;;;;;5075170;28;20041;-66
2023/10/09 12:35:33;;;;;;;14.80;3.80;;;18.30;99.90;;;;;;5075139;28;20051;-66
2023/10/09 12:38:00;;;;;;;12.00;3.80;;;18.30;99.90;;;;;;5075074;28;20056;-66
2023/10/09 12:40:31;;;;;;;10.27;3.63;;;18.30;99.90;;;;;;5074944;28;20048;-66
2023/10/09 12:43:00;;;;;;;9.77;3.40;;;18.30;99.90;;;;;;5074849;28;20048;-66
2023/10/09 12:45:27;;;;;;;10.37;3.50;;;18.40;99.90;;;;;;5073607;28;20044;-66
2023/10/09 12:47:58;;;;;;;10.60;3.67;;;18.40;99.90;;;;;;5074787;28;20040;-66
2023/10/09 12:50:28;;;;;;;10.60;3.83;;;18.30;99.90;;;;;;5075605;28;20052;-66
2023/10/09 12:53:01;;;;;;;13.10;3.77;;;18.30;99.90;;;;;;5074617;28;20485;-66
2023/10/09 12:55:31;;;;;;;11.43;3.43;;;18.30;99.90;;;;;;5074680;28;20079;-66
2023/10/09 12:58:07;;;;;;;12.83;4.20;;;18.30;99.90;;;;;;5074546;28;20496;-66
2023/10/09 13:00:44;;;;;;;11.53;3.57;;;18.20;99.90;;;;;;5074896;28;20056;-66
2023/10/09 13:03:19;;;;;;;9.60;3.37;;;18.10;99.90;;;;;;5074041;28;20044;-66
2023/10/09 13:05:54;;;;;;;13.83;4.40;;;18.10;99.90;;;;;;5075167;28;20052;-66
2023/10/09 13:08:34;;;;;;;12.57;3.90;;;18.10;99.90;;;;;;5073342;28;20045;-66
2023/10/09 13:11:11;;;;;;;15.27;4.63;;;18.10;99.90;;;;;;5074059;28;20044;-66
2023/10/09 13:13:42;;;;;;;16.80;4.53;;;18.10;99.90;;;;;;5074207;28;20041;-66
2023/10/09 13:16:14;;;;;;;11.73;3.83;;;18.10;99.90;;;;;;5074558;28;20068;-66
2023/10/09 13:18:49;;;;;;;16.53;4.20;;;18.10;99.90;;;;;;5072969;28;20041;-66
2023/10/09 13:21:19;;;;;;;14.57;3.77;;;18.10;99.90;;;;;;5074707;28;20045;-65
2023/10/09 13:23:49;;;;;;;13.07;4.37;;;18.10;99.90;;;;;;5074290;28;20476;-66
2023/10/09 13:26:23;;;;;;;13.57;4.07;;;18.10;99.90;;;;;;5074153;28;20048;-66
2023/10/09 13:28:52;;;;;;;14.45;4.82;;;18.10;99.90;;;;;;5072715;28;20052;-66
2023/10/09 13:31:20;;;;;;;19.60;5.43;;;18.10;99.90;;;;;;5074463;28;20149;-66
2023/10/09 13:33:47;;;;;;;15.37;4.33;;;18.00;99.90;;;;;;5073954;28;20063;-66
2023/10/09 13:36:52;;;;;;;14.33;4.47;;;18.00;99.90;;;;;;5074406;28;20044;-66
2023/10/09 13:39:26;;;;;;;18.40;4.83;;;18.00;99.90;;;;;;5070587;28;20059;-66
2023/10/09 13:41:59;;;;;;;14.60;4.10;;;17.90;99.90;;;;;;5073068;28;20044;-66
2023/10/09 13:44:32;;;;;;;12.30;4.17;;;17.90;99.90;;;;;;5073691;28;20143;-66
2023/10/09 13:47:01;;;;;;;11.17;3.70;;;17.80;99.90;;;;;;5073963;28;20455;-66
2023/10/09 13:49:30;;;;;;;11.17;4.00;;;17.80;99.90;;;;;;5073679;28;20055;-66
2023/10/09 13:52:01;;;;;;;14.40;3.80;;;17.80;99.90;;;;;;5073624;28;20040;-66
2023/10/09 13:57:05;;;;;;;13.63;4.03;;;17.70;99.90;;;;;;5074289;28;20103;-66
2023/10/09 13:59:34;;;;;;;13.87;4.00;;;17.70;99.90;;;;;;5073681;28;20052;-66
2023/10/09 14:02:02;;;;;;;12.13;3.80;;;17.70;99.90;;;;;;5073585;28;20052;-66
2023/10/09 14:04:28;;;;;;;14.60;4.13;;;17.70;99.90;;;;;;5073521;28;20054;-66
2023/10/09 14:06:58;;;;;;;13.90;4.50;;;17.70;99.90;;;;;;5074349;28;20059;-66
2023/10/09 14:09:28;;;;;;;13.27;3.60;;;17.70;99.90;;;;;;5073515;28;20040;-66
2023/10/09 14:12:06;;;;;;;9.97;3.30;;;17.70;99.90;;;;;;5073534;28;20055;-66
2023/10/09 14:14:48;;;;;;;14.97;4.23;;;17.80;99.90;;;;;;5074069;28;20052;-66
2023/10/09 14:17:25;;;;;;;13.80;3.70;;;17.80;99.90;;;;;;5073563;28;20135;-66
2023/10/09 14:19:56;;;;;;;13.87;3.93;;;17.80;99.90;;;;;;5073508;28;20036;-66
2023/10/09 14:22:29;;;;;;;17.23;3.63;;;17.90;99.90;;;;;;5073249;28;20118;-66
2023/10/09 14:24:55;;;;;;;11.53;3.40;;;17.90;99.90;;;;;;5073200;28;20055;-66
2023/10/09 14:27:25;;;;;;;12.33;3.40;;;17.90;99.90;;;;;;5073371;28;20048;-65
2023/10/09 14:29:59;;;;;;;9.27;3.47;;;17.90;99.90;;;;;;5072098;28;20064;-66
2023/10/09 14:32:28;;;;;;;9.60;3.50;;;17.90;99.90;;;;;;5074015;28;20060;-66
2023/10/09 14:35:00;;;;;;;8.60;2.93;;;17.90;99.90;;;;;;5073338;28;20044;-66
2023/10/09 14:37:27;;;;;;;12.07;3.47;;;17.90;99.90;;;;;;5073077;28;20154;-66
2023/10/09 14:39:53;;;;;;;14.43;3.63;;;17.90;99.90;;;;;;5072946;28;20458;-66
2023/10/09 14:42:22;;;;;;;10.30;2.97;;;17.90;99.90;;;;;;5073501;28;20040;-66
2023/10/09 14:44:49;;;;;;;10.57;3.10;;;17.90;99.90;;;;;;5073186;28;20084;-66
2023/10/09 14:47:16;;;;;;;11.00;3.13;;;17.80;99.90;;;;;;5073169;28;20056;-66
2023/10/09 14:49:46;;;;;;;12.90;4.13;;;17.90;99.90;;;;;;5073124;28;20044;-66
2023/10/09 14:52:16;;;;;;;10.03;3.83;;;17.90;99.90;;;;;;5073190;28;20055;-66
2023/10/09 14:54:44;;;;;;;12.67;3.30;;;17.90;99.90;;;;;;5073702;28;20489;-66
2023/10/09 14:57:11;;;;;;;9.50;3.00;;;17.80;99.90;;;;;;5072751;28;20512;-66
2023/10/09 14:59:37;;;;;;;10.07;3.40;;;17.80;99.90;;;;;;5073587;28;20048;-66
2023/10/09 15:02:05;;;;;;;7.73;2.83;;;17.80;99.90;;;;;;5072935;28;20127;-66
2023/10/09 15:04:31;;;;;;;8.63;3.07;;;17.80;99.90;;;;;;5072922;28;20044;-66
2023/10/09 15:06:57;;;;;;;9.57;3.07;;;17.80;99.90;;;;;;5073503;28;20472;-66
2023/10/09 15:09:28;;;;;;;9.10;2.90;;;17.70;99.90;;;;;;5073511;28;20051;-66
2023/10/09 15:11:54;;;;;;;7.10;2.60;;;17.70;99.90;;;;;;5072979;28;20049;-66
2023/10/09 15:14:20;;;;;;;12.43;3.70;;;17.70;99.90;;;;;;5073438;28;20350;-66
2023/10/09 15:16:47;;;;;;;9.17;2.73;;;17.70;99.90;;;;;;5073676;28;20127;-66
2023/10/09 15:19:13;;;;;;;9.00;3.50;;;17.70;99.90;;;;;;5072846;28;20052;-66
2023/10/09 15:21:46;;;;;;;10.23;2.50;;;17.70;99.90;;;;;;5072626;28;20041;-66
2023/10/09 15:24:19;;;;;;;8.27;3.00;;;17.60;99.90;;;;;;5073041;28;20064;-66
2023/10/09 15:26:56;;;;;;;11.30;2.87;;;17.60;99.90;;;;;;5072828;28;20489;-66
2023/10/09 15:29:27;;;;;;;11.23;3.17;;;17.60;99.90;;;;;;5072644;28;20060;-66
2023/10/09 15:32:00;;;;;;;6.73;2.53;;;17.60;99.90;;;;;;5073314;28;20045;-66
2023/10/09 15:34:27;;;;;;;9.37;3.00;;;17.60;99.90;;;;;;5073945;28;20431;-66
2023/10/09 15:36:53;;;;;;;6.47;2.60;;;17.60;99.90;;;;;;5076448;28;20056;-66
2023/10/09 15:39:19;;;;;;;8.83;3.17;;;17.60;99.90;;;;;;5074954;28;20044;-66
2023/10/09 15:41:48;;;;;;;8.33;2.77;;;17.50;99.90;;;;;;5075231;28;20135;-66
2023/10/09 15:44:14;;;;;;;10.53;2.93;;;17.50;99.90;;;;;;5076057;28;20043;-66
2023/10/09 15:46:40;;;;;;;7.80;2.93;;;17.50;99.90;;;;;;5076129;28;20041;-66
2023/10/09 15:49:09;;;;;;;8.27;2.50;;;17.40;99.90;;;;;;5076595;28;20088;-66
2023/10/09 15:51:35;;;;;;;8.30;2.63;;;17.40;99.90;;;;;;5076485;28;20055;-66
2023/10/09 15:54:01;;;;;;;10.23;2.70;;;17.40;99.90;;;;;;5075718;28;20404;-66
2023/10/09 15:56:27;;;;;;;10.07;3.33;;;17.40;99.90;;;;;;5074571;28;20053;-66
2023/10/09 15:58:54;;;;;;;6.50;2.70;;;17.30;99.90;;;;;;5076086;28;20048;-64